Terminal Aerodrome Forecast
Issued by NWS

Home | Current Version | Previous Version | Text Only | Print | Product List | Glossary On
Versions: 1 2 3 4 5 6 7 8 9 10 11 12 13 14 15 16 17 18 19 20
000
FTUS46 KSEW 181700
TAFHQM
TAF
KHQM 181725Z 1818/1918 22008KT P6SM SCT008 BKN025 OVC100
      TEMPO 1818/1820 BKN006
     FM182000 22008KT P6SM BKN030 BKN050
     FM190300 22005KT 5SM BR BKN010 OVC030
     FM191400 18005KT 4SM -RA BR OVC008=

USA.gov is the U.S. government's official web portal to all federal, state and local government web resources and services.